Time;durP1;ratioP1;P1;durP2;ratioP2;P2;SDS_P1;SDS_P2;PMS_P1;PMS_P2;Temp;Humidity;BMP_temperature;BMP_pressure;BME280_temperature;BME280_humidity;BME280_pressure;Samples;Min_cycle;Max_cycle;Signal;HPM_P1;HPM_P2
2022/05/07 00:02:14;;;;;;;26.27;19.13;;;10.20;99.90;;;;;;5018380;28;20685;-80
2022/05/07 00:04:40;;;;;;;20.77;18.53;;;10.20;99.90;;;;;;5019531;28;20202;-79
2022/05/07 00:07:06;;;;;;;22.87;18.43;;;10.30;99.90;;;;;;5019549;28;20205;-80
2022/05/07 00:09:33;;;;;;;22.23;18.20;;;10.20;99.90;;;;;;5019804;28;20198;-80
2022/05/07 00:11:59;;;;;;;23.57;19.00;;;10.30;99.90;;;;;;5018980;28;20201;-79
2022/05/07 00:14:26;;;;;;;23.40;19.80;;;10.30;99.90;;;;;;5020353;28;20182;-80
2022/05/07 00:19:36;;;;;;;24.33;20.10;;;10.30;99.90;;;;;;5020131;28;20573;-79
2022/05/07 00:22:02;;;;;;;21.13;18.93;;;10.20;99.90;;;;;;5018754;28;20187;-80
2022/05/07 00:24:28;;;;;;;23.07;19.00;;;10.30;99.90;;;;;;5018333;28;20203;-80
2022/05/07 00:26:54;;;;;;;20.87;18.20;;;10.30;99.90;;;;;;5019855;28;20185;-80
2022/05/07 00:29:19;;;;;;;21.47;18.67;;;10.30;99.90;;;;;;5018247;28;20205;-79
2022/05/07 00:31:45;;;;;;;21.30;18.63;;;10.30;99.90;;;;;;5019920;28;20175;-80
2022/05/07 00:34:11;;;;;;;22.97;18.57;;;10.30;99.90;;;;;;5018937;28;20195;-79
2022/05/07 00:36:37;;;;;;;22.53;19.13;;;;;;;;;;5020266;28;20707;-80
2022/05/07 00:39:03;;;;;;;27.83;20.20;;;10.30;99.90;;;;;;5017912;28;20194;-80
2022/05/07 00:41:29;;;;;;;24.57;19.90;;;10.40;99.90;;;;;;5019026;28;20175;-79
2022/05/07 00:43:55;;;;;;;22.73;18.67;;;;;;;;;;5019444;28;20206;-79
2022/05/07 00:46:24;;;;;;;24.50;18.70;;;10.40;99.90;;;;;;5019088;28;20260;-79
2022/05/07 00:48:50;;;;;;;21.23;18.37;;;10.40;99.90;;;;;;5018785;28;20655;-79
2022/05/07 00:51:35;;;;;;;24.90;19.30;;;10.30;99.90;;;;;;5017237;28;20173;-79
2022/05/07 00:54:05;;;;;;;25.27;18.90;;;10.40;99.90;;;;;;5018669;28;20195;-79
2022/05/07 00:56:32;;;;;;;23.37;19.07;;;10.40;99.90;;;;;;5018981;28;20265;-79
2022/05/07 00:58:59;;;;;;;27.17;19.77;;;10.30;99.90;;;;;;5018601;28;20175;-79
2022/05/07 01:01:25;;;;;;;24.27;20.77;;;10.40;99.90;;;;;;5018260;28;20515;-79
2022/05/07 01:03:52;;;;;;;25.03;20.03;;;10.40;99.90;;;;;;5017564;28;20210;-79
2022/05/07 01:06:18;;;;;;;24.17;19.47;;;10.30;99.90;;;;;;5018550;28;20191;-80
2022/05/07 01:08:47;;;;;;;24.10;19.23;;;10.40;99.90;;;;;;5017921;28;20207;-79
2022/05/07 01:11:14;;;;;;;23.63;19.33;;;10.30;99.90;;;;;;5017767;28;20177;-79
2022/05/07 01:13:41;;;;;;;23.37;19.30;;;10.40;99.90;;;;;;5015067;28;20205;-79
2022/05/07 01:16:06;;;;;;;22.77;19.57;;;10.30;99.90;;;;;;5015034;28;20189;-79
2022/05/07 01:18:32;;;;;;;26.90;20.73;;;10.30;99.90;;;;;;5016013;28;20178;-79
2022/05/07 01:20:58;;;;;;;26.40;19.73;;;10.30;99.90;;;;;;5018852;28;20170;-80
2022/05/07 01:23:26;;;;;;;25.90;19.87;;;10.30;99.90;;;;;;5016965;28;20235;-79
2022/05/07 01:25:57;;;;;;;25.63;20.07;;;10.30;99.90;;;;;;5019010;28;20167;-79
2022/05/07 01:28:23;;;;;;;26.47;20.90;;;10.30;99.90;;;;;;5019347;28;20209;-79
2022/05/07 01:30:48;;;;;;;23.80;20.57;;;10.40;99.90;;;;;;5017395;28;20269;-80
2022/05/07 01:33:14;;;;;;;23.77;20.37;;;10.40;99.90;;;;;;5017254;28;20194;-79
2022/05/07 01:35:40;;;;;;;24.50;20.40;;;10.40;99.90;;;;;;5018352;28;20179;-79
2022/05/07 01:38:05;;;;;;;25.17;19.83;;;10.40;99.90;;;;;;5018261;28;20645;-79
2022/05/07 01:40:31;;;;;;;26.60;21.73;;;10.40;99.90;;;;;;5018121;28;20226;-80
2022/05/07 01:42:57;;;;;;;26.53;20.13;;;10.40;99.90;;;;;;5018809;28;20269;-80
2022/05/07 01:45:22;;;;;;;26.60;21.77;;;10.40;99.90;;;;;;5018986;28;20249;-79
2022/05/07 01:50:43;;;;;;;26.63;20.90;;;10.40;99.90;;;;;;5017524;28;20203;-80
2022/05/07 01:53:12;;;;;;;25.33;21.73;;;10.30;99.90;;;;;;5018041;28;20683;-80
2022/05/07 01:55:37;;;;;;;27.17;21.53;;;10.40;99.90;;;;;;5017955;28;20173;-80
2022/05/07 01:58:04;;;;;;;26.47;21.90;;;10.40;99.90;;;;;;5016804;28;20210;-79
2022/05/07 02:00:30;;;;;;;30.67;22.50;;;10.40;99.90;;;;;;5018184;28;20237;-79
2022/05/07 02:03:00;;;;;;;27.20;22.10;;;10.30;99.90;;;;;;5017653;28;20210;-79
2022/05/07 02:05:27;;;;;;;31.30;23.20;;;10.40;99.90;;;;;;5017582;28;20268;-79
2022/05/07 02:07:54;;;;;;;30.10;23.37;;;10.40;99.90;;;;;;5017519;28;20217;-79
2022/05/07 02:10:20;;;;;;;32.03;23.27;;;10.40;99.90;;;;;;5017042;28;20166;-79
2022/05/07 02:12:46;;;;;;;28.57;23.67;;;10.30;99.90;;;;;;5017534;28;20328;-79
2022/05/07 02:15:12;;;;;;;27.97;22.40;;;10.40;99.90;;;;;;5016878;28;20233;-79
2022/05/07 02:17:37;;;;;;;29.17;23.83;;;10.40;99.90;;;;;;5015891;28;20186;-79
2022/05/07 02:20:04;;;;;;;29.57;23.70;;;10.40;99.90;;;;;;5017020;28;20221;-79
2022/05/07 02:22:30;;;;;;;28.13;23.20;;;10.30;99.90;;;;;;5015896;28;20195;-79
2022/05/07 02:24:57;;;;;;;27.23;21.77;;;10.30;99.90;;;;;;5016781;28;20669;-79
2022/05/07 02:27:23;;;;;;;33.13;24.10;;;10.40;99.90;;;;;;5017267;28;20520;-79
2022/05/07 02:29:49;;;;;;;31.03;23.53;;;10.30;99.90;;;;;;5017260;28;20233;-79
2022/05/07 02:32:14;;;;;;;29.97;23.87;;;10.30;99.90;;;;;;5016159;28;20213;-79
2022/05/07 02:34:42;;;;;;;30.03;24.57;;;10.30;99.90;;;;;;5017492;28;20257;-79
2022/05/07 02:37:07;;;;;;;31.33;24.40;;;10.40;99.90;;;;;;5017605;28;20174;-79
2022/05/07 02:39:33;;;;;;;30.43;23.70;;;10.60;99.90;;;;;;5015738;28;20194;-80
2022/05/07 02:44:44;;;;;;;30.17;23.80;;;10.40;99.90;;;;;;5017651;28;20260;-79
2022/05/07 02:47:09;;;;;;;29.43;23.40;;;10.40;99.90;;;;;;5016725;28;20662;-79
2022/05/07 02:49:35;;;;;;;30.33;24.27;;;10.40;99.90;;;;;;5017206;28;20181;-79
2022/05/07 02:52:01;;;;;;;30.70;25.10;;;10.40;99.90;;;;;;5016873;28;20275;-79
2022/05/07 02:54:27;;;;;;;32.60;25.50;;;10.40;99.90;;;;;;5017001;28;20532;-79
2022/05/07 02:56:54;;;;;;;32.77;26.33;;;10.30;99.90;;;;;;5015902;28;20211;-79
2022/05/07 02:59:19;;;;;;;31.90;26.17;;;10.40;99.90;;;;;;5015536;28;20179;-79
2022/05/07 03:01:45;;;;;;;31.83;24.50;;;10.30;99.90;;;;;;5015486;28;20603;-79
2022/05/07 03:04:11;;;;;;;32.17;26.00;;;10.30;99.90;;;;;;5016853;28;20202;-79
2022/05/07 03:06:37;;;;;;;31.47;24.90;;;10.40;99.90;;;;;;5016746;28;20175;-79
2022/05/07 03:09:03;;;;;;;31.97;25.77;;;10.30;99.90;;;;;;5016533;28;20259;-79
2022/05/07 03:11:33;;;;;;;34.17;26.53;;;10.30;99.90;;;;;;5015391;28;20752;-79
2022/05/07 03:13:59;;;;;;;30.67;25.67;;;10.30;99.90;;;;;;5016723;28;20211;-80
2022/05/07 03:16:24;;;;;;;31.87;25.07;;;10.40;99.90;;;;;;5016525;28;20179;-79
2022/05/07 03:18:50;;;;;;;30.83;24.80;;;10.30;99.90;;;;;;5016389;28;20170;-79
2022/05/07 03:21:16;;;;;;;34.43;25.53;;;10.30;99.90;;;;;;5016444;28;20199;-79
2022/05/07 03:23:44;;;;;;;33.20;27.30;;;10.30;99.90;;;;;;5016260;28;20202;-79
2022/05/07 03:26:10;;;;;;;31.63;25.50;;;10.40;99.90;;;;;;5014593;28;20258;-79
2022/05/07 03:28:36;;;;;;;31.07;23.97;;;10.40;99.90;;;;;;5015986;28;20197;-79
2022/05/07 03:31:02;;;;;;;31.20;24.73;;;10.40;99.90;;;;;;5016026;28;20187;-79
2022/05/07 03:33:27;;;;;;;32.23;25.20;;;10.40;99.90;;;;;;5015907;28;20195;-79
2022/05/07 03:35:53;;;;;;;32.03;25.10;;;10.30;99.90;;;;;;5015937;28;20542;-79
2022/05/07 03:38:18;;;;;;;31.90;26.00;;;10.30;99.90;;;;;;5015734;28;20186;-79
2022/05/07 03:40:45;;;;;;;30.77;24.67;;;10.30;99.90;;;;;;5014842;28;20208;-79
2022/05/07 03:43:10;;;;;;;33.23;25.17;;;10.30;99.90;;;;;;5015911;28;20198;-79
2022/05/07 03:45:36;;;;;;;34.33;26.00;;;10.40;99.90;;;;;;5015174;28;20198;-80
2022/05/07 03:48:01;;;;;;;34.07;26.07;;;10.30;99.90;;;;;;5015634;28;20186;-79
2022/05/07 03:50:27;;;;;;;34.73;25.90;;;10.40;99.90;;;;;;5015280;28;20229;-79
2022/05/07 03:55:41;;;;;;;35.93;26.60;;;10.30;99.90;;;;;;5015497;28;20177;-79
2022/05/07 03:58:17;;;;;;;32.73;26.37;;;10.30;99.90;;;;;;5014879;28;20585;-78
2022/05/07 04:00:43;;;;;;;37.10;27.57;;;10.40;99.90;;;;;;5014621;28;20519;-79
2022/05/07 04:03:13;;;;;;;35.03;27.50;;;10.40;99.90;;;;;;5014581;28;20213;-79
2022/05/07 04:05:39;;;;;;;36.23;27.50;;;10.40;99.90;;;;;;5014174;28;20203;-79
2022/05/07 04:08:05;;;;;;;35.83;27.83;;;;;;;;;;5012837;28;20171;-79
2022/05/07 04:10:31;;;;;;;38.00;28.67;;;10.40;99.90;;;;;;5013677;28;20197;-79
2022/05/07 04:12:57;;;;;;;33.97;27.27;;;10.40;99.90;;;;;;5013899;28;20211;-79
2022/05/07 04:15:23;;;;;;;36.37;28.67;;;10.40;99.90;;;;;;5013958;28;20190;-79
2022/05/07 04:17:49;;;;;;;38.97;28.50;;;10.40;99.90;;;;;;5016371;28;20206;-79
2022/05/07 04:20:16;;;;;;;42.67;27.90;;;10.40;99.90;;;;;;5016121;28;20182;-80
2022/05/07 04:22:42;;;;;;;37.23;28.27;;;10.40;99.90;;;;;;5015890;28;20194;-79
2022/05/07 04:25:10;;;;;;;36.57;26.50;;;10.40;99.90;;;;;;5014677;28;20297;-79
2022/05/07 04:27:36;;;;;;;35.27;28.33;;;10.40;99.90;;;;;;5016137;28;20183;-79
2022/05/07 04:30:03;;;;;;;39.37;27.90;;;10.40;99.90;;;;;;5015654;28;20203;-79
2022/05/07 04:32:28;;;;;;;35.30;28.13;;;10.40;99.90;;;;;;5015493;28;20194;-80
2022/05/07 04:34:57;;;;;;;41.47;29.10;;;10.30;99.90;;;;;;5014563;28;20190;-80
2022/05/07 04:37:24;;;;;;;36.13;27.20;;;10.30;99.90;;;;;;5014811;28;20187;-79
2022/05/07 04:39:50;;;;;;;41.33;28.60;;;10.40;99.90;;;;;;5019131;28;20225;-79
2022/05/07 04:42:16;;;;;;;39.80;28.30;;;10.40;99.90;;;;;;5019292;28;20564;-79
2022/05/07 04:44:42;;;;;;;39.60;28.33;;;10.40;99.90;;;;;;5019116;28;20210;-79
2022/05/07 04:47:08;;;;;;;37.67;25.77;;;10.40;99.90;;;;;;5019663;28;20181;-79
2022/05/07 04:49:35;;;;;;;33.73;26.43;;;10.40;99.90;;;;;;5019397;28;20227;-80
2022/05/07 04:52:01;;;;;;;35.07;25.20;;;10.40;99.90;;;;;;5017899;28;20198;-80
2022/05/07 04:54:26;;;;;;;36.33;25.20;;;10.40;99.90;;;;;;5018879;28;20248;-79
2022/05/07 04:56:53;;;;;;;35.53;26.20;;;10.40;99.90;;;;;;5018875;28;20703;-79
2022/05/07 04:59:19;;;;;;;35.73;25.57;;;10.40;99.90;;;;;;5018997;28;20236;-79
2022/05/07 05:01:46;;;;;;;32.03;26.10;;;10.40;99.90;;;;;;5018139;28;20226;-79
2022/05/07 05:04:11;;;;;;;41.47;27.43;;;10.40;99.90;;;;;;5019133;28;20686;-80
2022/05/07 05:06:38;;;;;;;36.83;28.67;;;10.40;99.90;;;;;;5019122;28;20205;-79
2022/05/07 05:09:05;;;;;;;36.80;28.40;;;10.50;99.90;;;;;;5019278;28;20648;-79
2022/05/07 05:11:32;;;;;;;35.47;27.03;;;10.50;99.90;;;;;;5019231;28;20183;-79
2022/05/07 05:13:57;;;;;;;36.40;28.30;;;10.50;99.90;;;;;;5019190;28;20275;-79
2022/05/07 05:16:23;;;;;;;36.13;27.27;;;10.50;99.90;;;;;;5018238;28;20210;-80
2022/05/07 05:18:49;;;;;;;42.80;29.17;;;10.50;99.90;;;;;;5019477;28;20190;-81
2022/05/07 05:21:15;;;;;;;38.03;28.80;;;10.60;99.90;;;;;;5018897;28;20660;-80
2022/05/07 05:23:40;;;;;;;42.63;28.63;;;10.60;99.90;;;;;;5018115;28;20255;-79
2022/05/07 05:26:06;;;;;;;45.27;28.90;;;10.60;99.90;;;;;;5018976;28;20171;-79
2022/05/07 05:28:32;;;;;;;42.50;30.23;;;10.60;99.90;;;;;;5020315;28;20175;-79
2022/05/07 05:30:59;;;;;;;44.00;30.63;;;10.60;99.90;;;;;;5019928;28;20637;-79
2022/05/07 05:33:25;;;;;;;43.97;30.60;;;10.60;99.90;;;;;;5018114;28;20202;-79
2022/05/07 05:35:51;;;;;;;42.40;31.10;;;10.60;99.90;;;;;;5018301;28;20178;-80
2022/05/07 05:38:17;;;;;;;48.57;32.90;;;10.50;99.90;;;;;;5019667;28;20175;-79
2022/05/07 05:40:42;;;;;;;43.23;31.30;;;10.60;99.90;;;;;;5018581;28;20194;-79
2022/05/07 05:43:08;;;;;;;45.30;32.07;;;10.50;99.90;;;;;;5018605;28;20202;-79
2022/05/07 05:45:34;;;;;;;46.50;31.77;;;10.50;99.90;;;;;;5018292;28;20720;-79
2022/05/07 05:48:01;;;;;;;42.77;30.40;;;10.50;99.90;;;;;;5017736;28;20209;-80
2022/05/07 05:50:30;;;;;;;49.67;32.67;;;10.60;99.90;;;;;;5017492;28;20174;-80
2022/05/07 05:52:57;;;;;;;44.90;32.80;;;10.50;99.90;;;;;;5017841;28;20234;-80
2022/05/07 05:55:22;;;;;;;49.20;32.80;;;10.50;99.90;;;;;;5016593;28;20182;-80
2022/05/07 05:57:49;;;;;;;50.13;34.73;;;10.50;99.90;;;;;;5017685;28;20552;-80
2022/05/07 06:00:15;;;;;;;56.17;41.93;;;10.60;99.90;;;;;;5016337;28;20187;-79
2022/05/07 06:02:44;;;;;;;55.10;37.43;;;10.60;99.90;;;;;;5018425;28;20202;-80
2022/05/07 06:05:13;;;;;;;49.53;34.93;;;10.60;99.90;;;;;;5017166;28;20203;-80
2022/05/07 06:07:38;;;;;;;54.20;35.77;;;10.60;99.90;;;;;;5017830;28;20250;-80
2022/05/07 06:10:04;;;;;;;57.17;35.07;;;10.60;99.90;;;;;;5016664;28;20710;-80
2022/05/07 06:12:31;;;;;;;53.33;33.17;;;10.70;99.90;;;;;;5016708;28;20209;-80
2022/05/07 06:14:57;;;;;;;49.63;34.07;;;10.70;99.90;;;;;;5027883;28;20187;-80
2022/05/07 06:17:23;;;;;;;50.80;33.67;;;10.70;99.90;;;;;;5023548;28;20194;-80
2022/05/07 06:19:49;;;;;;;53.47;35.37;;;10.70;99.90;;;;;;5017199;28;20232;-80
2022/05/07 06:22:15;;;;;;;53.53;33.90;;;10.80;99.90;;;;;;5017842;28;20253;-80
2022/05/07 06:27:28;;;;;;;63.97;34.30;;;10.70;99.90;;;;;;5018024;28;20303;-80
2022/05/07 06:29:54;;;;;;;55.37;34.70;;;10.70;99.90;;;;;;5017164;28;20297;-80
2022/05/07 06:32:20;;;;;;;55.77;35.70;;;10.70;99.90;;;;;;5017002;28;20219;-80
2022/05/07 06:34:46;;;;;;;51.50;34.10;;;10.70;99.90;;;;;;5016982;28;20183;-80
2022/05/07 06:37:12;;;;;;;50.37;32.77;;;10.70;99.90;;;;;;5017752;28;20179;-80
2022/05/07 06:39:38;;;;;;;61.40;35.20;;;10.70;99.90;;;;;;5017236;28;20274;-80
2022/05/07 06:42:04;;;;;;;57.00;34.57;;;10.80;99.90;;;;;;5016761;28;20581;-80
2022/05/07 06:44:30;;;;;;;55.60;33.43;;;10.80;99.90;;;;;;5016862;28;20203;-80
2022/05/07 06:46:57;;;;;;;51.77;33.20;;;10.80;99.90;;;;;;5017717;28;20668;-80
2022/05/07 06:49:23;;;;;;;50.27;34.37;;;10.80;99.90;;;;;;5016229;28;20182;-80
2022/05/07 06:51:49;;;;;;;52.10;33.47;;;10.90;99.90;;;;;;5016993;28;20171;-80
2022/05/07 06:54:17;;;;;;;75.97;60.93;;;10.80;99.90;;;;;;5017030;28;20543;-80
2022/05/07 06:56:43;;;;;;;50.77;36.67;;;10.90;99.90;;;;;;5016554;28;20182;-80
2022/05/07 06:59:10;;;;;;;60.27;41.20;;;10.90;99.90;;;;;;5016699;28;20175;-80
2022/05/07 07:01:36;;;;;;;51.53;32.97;;;10.90;99.90;;;;;;5015643;28;20175;-80
2022/05/07 07:04:02;;;;;;;48.70;32.13;;;10.90;99.90;;;;;;5016220;28;20209;-80
2022/05/07 07:06:28;;;;;;;51.63;31.83;;;10.90;99.90;;;;;;5014541;28;20273;-80
2022/05/07 07:08:55;;;;;;;48.70;30.87;;;;;;;;;;5013642;28;20211;-80
2022/05/07 07:11:20;;;;;;;47.03;29.93;;;10.90;99.90;;;;;;5014279;28;20169;-80
2022/05/07 07:13:47;;;;;;;44.37;29.13;;;11.00;99.90;;;;;;5015377;28;20204;-80
2022/05/07 07:16:12;;;;;;;51.23;34.70;;;11.10;99.90;;;;;;5018092;28;20175;-80
2022/05/07 07:18:38;;;;;;;46.03;33.30;;;11.10;99.90;;;;;;5017865;28;20631;-81
2022/05/07 07:21:04;;;;;;;45.97;31.07;;;11.20;99.90;;;;;;5018113;28;20167;-80
2022/05/07 07:23:29;;;;;;;43.23;28.50;;;11.20;99.90;;;;;;5016245;28;20236;-80
2022/05/07 07:25:55;;;;;;;44.33;29.23;;;11.30;99.90;;;;;;5016275;28;20189;-80
2022/05/07 07:28:21;;;;;;;40.97;28.23;;;11.40;99.90;;;;;;5016728;28;20214;-80
2022/05/07 07:30:46;;;;;;;43.20;28.87;;;11.40;99.90;;;;;;5016704;28;20190;-79
2022/05/07 07:33:13;;;;;;;39.70;28.63;;;11.60;99.90;;;;;;5017797;28;20286;-80
2022/05/07 07:35:39;;;;;;;44.47;32.07;;;11.70;99.90;;;;;;5017717;28;20175;-80
2022/05/07 07:38:05;;;;;;;34.80;25.63;;;11.80;99.90;;;;;;5018221;28;20183;-80
2022/05/07 07:40:31;;;;;;;38.97;27.30;;;11.90;99.90;;;;;;5017929;28;20194;-80
2022/05/07 07:42:56;;;;;;;36.33;26.03;;;11.90;99.90;;;;;;5017949;28;20203;-80
2022/05/07 07:48:07;;;;;;;34.07;25.30;;;12.00;99.90;;;;;;5018792;28;20643;-80
2022/05/07 07:50:37;;;;;;;37.63;25.03;;;12.10;99.90;;;;;;5016859;28;20181;-80
2022/05/07 07:53:06;;;;;;;35.07;23.77;;;12.10;99.90;;;;;;5017684;28;20198;-81
2022/05/07 07:55:32;;;;;;;35.30;25.13;;;12.10;99.90;;;;;;5016622;28;20190;-80
2022/05/07 07:57:59;;;;;;;32.50;23.40;;;12.30;99.90;;;;;;5016400;28;20209;-81
2022/05/07 08:00:26;;;;;;;29.70;22.50;;;12.30;99.90;;;;;;5016127;28;20644;-80
2022/05/07 08:02:55;;;;;;;28.00;22.07;;;12.40;99.90;;;;;;5014850;28;20744;-80
2022/05/07 08:05:22;;;;;;;31.10;21.43;;;12.40;99.90;;;;;;5017144;28;20206;-80
2022/05/07 08:13:16;;;;;;;31.77;20.83;;;12.50;99.90;;;;;;5018569;28;20695;-80
2022/05/07 08:15:42;;;;;;;29.83;22.13;;;12.60;99.90;;;;;;5018622;28;20182;-80
2022/05/07 08:18:08;;;;;;;26.70;20.17;;;12.50;99.90;;;;;;5020730;28;20190;-80
2022/05/07 08:20:35;;;;;;;25.40;20.83;;;12.50;99.90;;;;;;5019877;28;20190;-80
2022/05/07 08:23:01;;;;;;;30.63;19.77;;;12.50;99.90;;;;;;5020266;28;20277;-80
2022/05/07 08:25:26;;;;;;;27.67;19.83;;;12.50;99.90;;;;;;5019277;28;20342;-80
2022/05/07 08:27:52;;;;;;;27.87;20.30;;;12.50;99.90;;;;;;5019756;28;20253;-80
2022/05/07 08:30:18;;;;;;;25.53;18.40;;;12.50;99.90;;;;;;5020227;28;20189;-80
2022/05/07 08:32:44;;;;;;;24.77;19.03;;;12.40;99.90;;;;;;5019578;28;20202;-79
2022/05/07 08:35:10;;;;;;;25.70;19.63;;;12.40;99.90;;;;;;5018644;28;20174;-79
2022/05/07 08:37:35;;;;;;;24.67;18.73;;;12.50;99.90;;;;;;5019199;28;20265;-79
2022/05/07 08:40:06;;;;;;;27.67;19.97;;;12.50;99.90;;;;;;5017414;28;20210;-79
2022/05/07 08:42:36;;;;;;;30.07;20.33;;;12.50;99.90;;;;;;5019245;28;20544;-78
2022/05/07 08:45:02;;;;;;;24.43;19.00;;;12.50;99.90;;;;;;5017915;28;20217;-79
2022/05/07 08:47:29;;;;;;;24.77;19.63;;;12.50;99.90;;;;;;5018842;28;20208;-79
2022/05/07 08:49:55;;;;;;;25.67;18.10;;;12.60;99.90;;;;;;5018938;28;20170;-79
2022/05/07 08:52:22;;;;;;;24.13;19.40;;;12.90;99.90;;;;;;5019243;28;20544;-79
2022/05/07 08:54:48;;;;;;;25.63;19.20;;;12.90;99.90;;;;;;5017473;28;20179;-79
2022/05/07 08:57:14;;;;;;;26.13;17.60;;;13.00;99.90;;;;;;5018115;28;20190;-79
2022/05/07 08:59:40;;;;;;;25.13;18.40;;;13.10;99.90;;;;;;5017572;28;20210;-79
2022/05/07 09:02:06;;;;;;;23.20;18.27;;;13.30;99.90;;;;;;5017844;28;20182;-79
2022/05/07 09:04:32;;;;;;;20.57;17.57;;;13.40;99.90;;;;;;5019597;28;20538;-78
2022/05/07 09:07:01;;;;;;;23.00;17.23;;;13.40;99.90;;;;;;5019371;28;20214;-79
2022/05/07 09:09:30;;;;;;;25.23;17.93;;;13.60;99.90;;;;;;5018591;28;20266;-79
2022/05/07 09:11:56;;;;;;;19.90;15.90;;;13.40;99.90;;;;;;5018609;28;20262;-79
2022/05/07 09:14:28;;;;;;;21.20;16.97;;;13.30;99.90;;;;;;5018931;28;20202;-80
2022/05/07 09:16:59;;;;;;;23.43;16.13;;;13.20;99.90;;;;;;5017478;28;20557;-79
2022/05/07 09:19:30;;;;;;;20.97;17.60;;;13.10;99.90;;;;;;5016662;28;20201;-80
2022/05/07 09:22:09;;;;;;;20.07;16.57;;;13.00;99.90;;;;;;5018214;28;20175;-80
2022/05/07 09:24:36;;;;;;;21.40;16.50;;;13.00;99.90;;;;;;5016661;28;20216;-79
2022/05/07 09:27:04;;;;;;;18.50;15.77;;;13.10;99.90;;;;;;5016545;28;20258;-80
2022/05/07 09:29:31;;;;;;;22.73;17.40;;;13.10;99.90;;;;;;5017635;28;20198;-80
2022/05/07 09:32:10;;;;;;;21.70;17.57;;;13.10;99.90;;;;;;5016613;28;20229;-80
2022/05/07 09:37:34;;;;;;;21.07;17.20;;;13.20;99.90;;;;;;5026475;28;20201;-79
2022/05/07 09:40:05;;;;;;;21.50;18.77;;;13.30;99.90;;;;;;5034281;28;20256;-79
2022/05/07 09:42:33;;;;;;;23.60;19.63;;;13.10;99.90;;;;;;5033744;28;20199;-79
2022/05/07 09:45:01;;;;;;;24.83;20.73;;;13.00;99.90;;;;;;5019834;28;20203;-79
2022/05/07 09:47:27;;;;;;;23.17;20.67;;;12.90;99.90;;;;;;5016610;28;20237;-80
2022/05/07 09:57:30;;;;;;;24.23;20.00;;;12.70;99.90;;;;;;5017671;28;20253;-79
2022/05/07 09:58:10;;;;;;;27.60;21.50;;;12.70;99.90;;;;;;5016775;28;20214;-80
2022/05/07 10:00:43;;;;;;;24.70;21.53;;;12.70;99.90;;;;;;5016292;28;20163;-80
2022/05/07 10:03:27;;;;;;;26.40;22.83;;;12.90;99.90;;;;;;5016133;28;20191;-80
2022/05/07 10:06:29;;;;;;;24.43;21.83;;;13.00;99.90;;;;;;5016887;28;20194;-80
2022/05/07 10:09:01;;;;;;;26.23;22.07;;;13.10;99.90;;;;;;5017846;28;20163;-80
2022/05/07 10:11:27;;;;;;;25.43;22.40;;;13.30;99.90;;;;;;5016812;28;20597;-79
2022/05/07 10:13:58;;;;;;;29.77;22.53;;;13.60;99.90;;;;;;5016997;28;20206;-80
2022/05/07 10:16:29;;;;;;;25.57;22.73;;;13.80;99.90;;;;;;5017170;28;20603;-80
2022/05/07 10:18:55;;;;;;;27.57;22.43;;;14.00;99.90;;;;;;5016960;28;20245;-78
2022/05/07 10:21:21;;;;;;;23.77;20.57;;;14.10;99.90;;;;;;5017196;28;20210;-78
2022/05/07 10:23:55;;;;;;;27.33;22.50;;;14.20;99.90;;;;;;5016124;28;20621;-79
2022/05/07 10:26:22;;;;;;;25.73;21.40;;;14.40;99.90;;;;;;5017881;28;20175;-79
2022/05/07 10:28:48;;;;;;;22.27;19.87;;;14.40;99.90;;;;;;5017689;28;20171;-79
2022/05/07 10:31:20;;;;;;;23.90;20.30;;;14.40;99.90;;;;;;5017431;28;20179;-79
2022/05/07 10:33:46;;;;;;;24.03;19.33;;;14.20;99.90;;;;;;5021378;28;20186;-79
2022/05/07 10:36:12;;;;;;;20.27;18.13;;;14.10;99.90;;;;;;5022714;28;20570;-79
2022/05/07 10:38:39;;;;;;;16.73;15.07;;;14.00;99.90;;;;;;5022683;28;20276;-79
2022/05/07 10:41:15;;;;;;;17.23;15.43;;;13.90;99.90;;;;;;5021832;28;20155;-79
2022/05/07 10:43:42;;;;;;;19.47;16.43;;;13.70;99.90;;;;;;5017104;28;20277;-79
2022/05/07 10:46:08;;;;;;;20.10;14.90;;;13.60;99.90;;;;;;5016211;28;20179;-79
2022/05/07 10:48:46;;;;;;;18.57;16.67;;;13.50;99.90;;;;;;5016511;28;20178;-79
2022/05/07 10:51:28;;;;;;;18.43;16.40;;;13.50;99.90;;;;;;5016555;28;20177;-79
2022/05/07 10:53:57;;;;;;;16.67;14.87;;;13.50;99.90;;;;;;5016713;28;20550;-79
2022/05/07 10:56:24;;;;;;;17.53;15.67;;;13.50;99.90;;;;;;5015654;28;20551;-79
2022/05/07 10:58:51;;;;;;;19.63;15.70;;;13.40;99.90;;;;;;5017039;28;20178;-79
2022/05/07 11:01:18;;;;;;;17.70;15.70;;;13.40;99.90;;;;;;5016215;28;20175;-79
2022/05/07 11:03:45;;;;;;;19.23;16.80;;;13.30;99.90;;;;;;5015501;28;20195;-79
2022/05/07 11:06:11;;;;;;;20.03;16.23;;;13.30;99.90;;;;;;5017333;28;20171;-80
2022/05/07 11:08:52;;;;;;;17.33;14.40;;;13.00;99.90;;;;;;5016588;28;20221;-80
2022/05/07 11:11:18;;;;;;;10.70;8.60;;;12.70;99.90;;;;;;5017429;28;20166;-81
2022/05/07 11:13:49;;;;;;;5.43;4.60;;;12.30;99.90;;;;;;5018681;28;20195;-82
2022/05/07 11:16:19;;;;;;;5.23;4.73;;;12.10;99.90;;;;;;5018494;28;20163;-84
2022/05/07 11:18:51;;;;;;;6.10;5.03;;;11.80;99.90;;;;;;5019389;28;20628;-81
2022/05/07 11:21:21;;;;;;;5.20;4.57;;;11.60;99.90;;;;;;5017395;28;20644;-80
2022/05/07 11:23:59;;;;;;;5.23;4.73;;;11.40;99.90;;;;;;5017687;28;20195;-80
2022/05/07 11:26:25;;;;;;;6.63;5.03;;;11.40;99.90;;;;;;5025205;28;20173;-79
2022/05/07 11:28:52;;;;;;;6.33;5.47;;;11.40;99.90;;;;;;5025376;28;20198;-80
2022/05/07 11:31:34;;;;;;;7.50;6.30;;;11.40;99.90;;;;;;5022157;28;20175;-81
2022/05/07 11:34:13;;;;;;;7.33;6.63;;;11.40;99.90;;;;;;5014755;28;20202;-81
2022/05/07 11:36:39;;;;;;;6.60;5.60;;;11.50;99.90;;;;;;5016485;28;20217;-81
2022/05/07 11:39:07;;;;;;;7.50;6.70;;;11.50;99.90;;;;;;5014734;28;20197;-81
2022/05/07 11:41:34;;;;;;;8.67;7.13;;;11.50;99.90;;;;;;5014323;28;20186;-81
2022/05/07 11:46:54;;;;;;;11.10;9.90;;;11.80;99.90;;;;;;5019369;28;20177;-80
2022/05/07 11:49:27;;;;;;;12.20;10.97;;;12.20;99.90;;;;;;5021961;28;20170;-80
2022/05/07 11:52:06;;;;;;;12.33;10.77;;;12.30;99.90;;;;;;5020995;28;20233;-79
2022/05/07 11:54:32;;;;;;;12.57;10.73;;;12.50;99.90;;;;;;5022634;28;20242;-80
2022/05/07 11:56:59;;;;;;;11.60;10.40;;;12.40;99.90;;;;;;5022282;28;20202;-80
2022/05/07 11:59:25;;;;;;;12.77;10.93;;;12.50;99.90;;;;;;5022138;28;20170;-80
2022/05/07 12:01:51;;;;;;;11.47;10.27;;;12.60;99.90;;;;;;5022092;28;20665;-81
2022/05/07 12:04:16;;;;;;;11.97;10.73;;;12.80;99.90;;;;;;5020446;28;20206;-80
2022/05/07 12:06:54;;;;;;;13.70;11.63;;;12.90;99.90;;;;;;5022338;28;20166;-80
2022/05/07 12:09:20;;;;;;;12.43;11.13;;;12.90;99.90;;;;;;5022339;28;20158;-81
2022/05/07 12:11:46;;;;;;;12.83;10.87;;;12.90;99.90;;;;;;5020540;28;20175;-81
2022/05/07 12:14:12;;;;;;;15.20;11.83;;;12.90;99.90;;;;;;5020862;28;20690;-80
2022/05/07 12:19:29;;;;;;;13.90;11.63;;;13.10;99.90;;;;;;5022335;28;20178;-80
2022/05/07 12:30:09;;;;;;;13.60;11.50;;;13.10;99.90;;;;;;5022526;28;20266;-80
2022/05/07 12:32:35;;;;;;;12.33;11.03;;;13.00;99.90;;;;;;5021347;28;20183;-81
2022/05/07 12:35:00;;;;;;;12.93;11.40;;;13.00;99.90;;;;;;5020470;28;20187;-81
2022/05/07 12:37:26;;;;;;;15.27;12.07;;;12.90;99.90;;;;;;5020880;28;20190;-83
2022/05/07 12:39:52;;;;;;;12.10;10.90;;;13.00;99.90;;;;;;5023159;28;20190;-81
2022/05/07 12:42:18;;;;;;;12.60;11.30;;;13.00;99.90;;;;;;5020036;28;20668;-81
2022/05/07 12:44:45;;;;;;;12.27;11.00;;;13.00;99.90;;;;;;5020686;28;20197;-79
2022/05/07 12:47:11;;;;;;;11.30;10.03;;;13.00;99.90;;;;;;5020332;28;20749;-82
2022/05/07 12:49:38;;;;;;;13.40;10.87;;;13.00;99.90;;;;;;5018730;28;20181;-80
2022/05/07 12:52:06;;;;;;;13.03;10.80;;;13.30;99.90;;;;;;5022952;28;20655;-81
2022/05/07 12:54:32;;;;;;;12.07;10.87;;;13.30;99.90;;;;;;5021462;28;20201;-80
2022/05/07 12:56:58;;;;;;;13.10;11.70;;;13.40;99.90;;;;;;5021363;28;20179;-81
2022/05/07 12:59:24;;;;;;;13.90;12.07;;;13.50;99.90;;;;;;5019158;28;20186;-81
2022/05/07 13:01:50;;;;;;;12.50;11.20;;;13.60;99.90;;;;;;5019068;28;20175;-81
2022/05/07 13:04:15;;;;;;;12.70;11.27;;;13.70;99.90;;;;;;5019663;28;20213;-81
2022/05/07 13:06:41;;;;;;;15.00;11.30;;;13.70;99.90;;;;;;5031483;28;20176;-81
2022/05/07 13:09:07;;;;;;;14.33;12.93;;;13.60;99.90;;;;;;5038367;28;20525;-81
2022/05/07 13:11:33;;;;;;;14.33;12.87;;;13.50;99.90;;;;;;5031609;28;20278;-81
2022/05/07 13:13:59;;;;;;;14.50;13.00;;;13.50;99.90;;;;;;5018971;28;20230;-80